Time;durP1;ratioP1;P1;durP2;ratioP2;P2;SDS_P1;SDS_P2;PMS_P1;PMS_P2;Temp;Humidity;BMP_temperature;BMP_pressure;BME280_temperature;BME280_humidity;BME280_pressure;Samples;Min_cycle;Max_cycle;Signal;HPM_P1;HPM_P2
2021/06/22 00:00:36;;;;;;;7.20;1.75;;;25.90;64.70;;;;;;5054791;28;20390;-88
2021/06/22 00:03:02;;;;;;;7.65;2.38;;;25.80;64.70;;;;;;5053630;28;20032;-88
2021/06/22 00:05:30;;;;;;;12.38;2.38;;;25.80;64.90;;;;;;5053588;28;20374;-88
2021/06/22 00:07:56;;;;;;;10.55;2.22;;;25.70;64.90;;;;;;5053496;28;20386;-88
2021/06/22 00:10:25;;;;;;;6.40;2.88;;;25.80;65.00;;;;;;5053382;28;20028;-87
2021/06/22 00:12:51;;;;;;;6.68;2.17;;;25.80;65.20;;;;;;5053271;28;20086;-89
2021/06/22 00:15:18;;;;;;;7.70;2.22;;;25.80;65.10;;;;;;5053455;28;20096;-88
2021/06/22 00:17:45;;;;;;;14.10;2.67;;;25.80;65.40;;;;;;5053075;28;20029;-88
2021/06/22 00:20:11;;;;;;;7.80;2.10;;;25.70;65.40;;;;;;5053035;28;20040;-86
2021/06/22 00:22:38;;;;;;;15.60;2.63;;;25.70;65.50;;;;;;5053214;28;20688;-87
2021/06/22 00:25:06;;;;;;;9.55;3.10;;;25.70;65.70;;;;;;5052821;28;20090;-87
2021/06/22 00:27:32;;;;;;;11.95;2.80;;;25.70;65.70;;;;;;5053235;28;20033;-88
2021/06/22 00:29:58;;;;;;;9.23;2.60;;;25.70;65.80;;;;;;5052751;28;20045;-88
2021/06/22 00:32:24;;;;;;;9.43;2.58;;;25.70;65.90;;;;;;5054266;28;20033;-88
2021/06/22 00:34:50;;;;;;;19.55;2.70;;;25.70;65.90;;;;;;5052920;28;20025;-89
2021/06/22 00:37:18;;;;;;;4.35;2.38;;;25.70;65.90;;;;;;5054147;28;20474;-88
2021/06/22 00:39:44;;;;;;;6.82;2.03;;;25.60;66.00;;;;;;5052614;28;20492;-88
2021/06/22 00:42:11;;;;;;;9.32;3.20;;;25.50;66.40;;;;;;5054055;28;20032;-88
2021/06/22 00:45:07;;;;;;;8.07;2.08;;;25.50;66.60;;;;;;5052843;28;20025;-89
2021/06/22 00:47:33;;;;;;;10.70;2.00;;;25.50;66.90;;;;;;5044117;28;20561;-88
2021/06/22 00:49:59;;;;;;;12.45;2.53;;;25.40;67.10;;;;;;5052668;28;20116;-88
2021/06/22 00:52:26;;;;;;;12.82;2.28;;;25.40;67.30;;;;;;5052444;28;20112;-88
2021/06/22 00:54:54;;;;;;;12.27;2.70;;;25.40;67.30;;;;;;5052356;28;20027;-88
2021/06/22 00:57:20;;;;;;;9.05;2.30;;;25.30;67.70;;;;;;5052519;28;20067;-89
2021/06/22 00:59:47;;;;;;;6.18;2.30;;;25.30;67.80;;;;;;5052702;28;20460;-88
2021/06/22 01:02:13;;;;;;;10.38;3.08;;;25.30;67.90;;;;;;5053793;28;20029;-89
2021/06/22 01:04:39;;;;;;;8.95;2.28;;;25.30;67.80;;;;;;5052427;28;20032;-88
2021/06/22 01:07:07;;;;;;;9.00;2.65;;;25.30;67.90;;;;;;5036022;28;20018;-88
2021/06/22 01:09:33;;;;;;;14.85;3.00;;;25.30;68.50;;;;;;5052154;28;20052;-88
2021/06/22 01:11:59;;;;;;;10.77;2.60;;;25.20;69.20;;;;;;5053552;28;20099;-88
2021/06/22 01:14:26;;;;;;;11.98;2.85;;;25.10;69.50;;;;;;5051925;28;20036;-87
2021/06/22 01:16:52;;;;;;;7.07;2.25;;;25.10;70.10;;;;;;5053599;28;20029;-88
2021/06/22 01:19:18;;;;;;;4.80;2.50;;;25.10;70.20;;;;;;5051874;28;20129;-88
2021/06/22 01:21:44;;;;;;;7.07;2.45;;;25.10;70.10;;;;;;5053288;28;20504;-88
2021/06/22 01:24:16;;;;;;;7.55;2.58;;;25.10;70.00;;;;;;5052869;28;20029;-88
2021/06/22 01:26:50;;;;;;;7.10;2.50;;;25.00;69.90;;;;;;5053023;28;20028;-88
2021/06/22 01:29:16;;;;;;;14.95;2.75;;;25.00;69.90;;;;;;5051781;28;20045;-88
2021/06/22 01:31:42;;;;;;;9.43;2.58;;;24.90;70.00;;;;;;5052935;28;20029;-86
2021/06/22 01:34:09;;;;;;;9.93;2.17;;;25.00;69.60;;;;;;5052013;28;20029;-88
2021/06/22 01:36:36;;;;;;;6.18;1.90;;;25.00;69.50;;;;;;5051919;28;20032;-88
2021/06/22 01:39:10;;;;;;;6.47;2.42;;;25.00;69.30;;;;;;5051623;28;20037;-87
2021/06/22 01:41:35;;;;;;;5.82;2.30;;;25.10;68.80;;;;;;5051703;28;20108;-89
2021/06/22 01:44:01;;;;;;;4.10;2.65;;;25.10;68.80;;;;;;5051897;28;20052;-88
2021/06/22 01:46:27;;;;;;;11.10;2.55;;;25.10;68.60;;;;;;5051368;28;20017;-88
2021/06/22 01:48:52;;;;;;;8.20;2.70;;;25.10;68.40;;;;;;5051289;28;20036;-90
2021/06/22 01:51:18;;;;;;;9.20;3.42;;;25.20;69.10;;;;;;5052839;28;20024;-88
2021/06/22 01:53:55;;;;;;;5.53;2.22;;;25.20;68.30;;;;;;5051677;28;20119;-87
2021/06/22 01:56:22;;;;;;;8.35;2.60;;;25.30;68.30;;;;;;5052801;28;20033;-88
2021/06/22 01:58:48;;;;;;;8.25;2.63;;;25.30;68.40;;;;;;5051330;28;20063;-88
2021/06/22 02:01:14;;;;;;;23.58;4.82;;;25.30;68.60;;;;;;5051513;28;20029;-87
2021/06/22 02:03:40;;;;;;;7.32;2.60;;;25.30;68.70;;;;;;5052288;28;20051;-88
2021/06/22 02:06:06;;;;;;;7.88;3.20;;;25.20;69.20;;;;;;5051761;28;20473;-87
2021/06/22 02:08:32;;;;;;;11.95;2.78;;;25.20;69.70;;;;;;5051206;28;20123;-88
2021/06/22 02:10:57;;;;;;;9.95;2.63;;;25.10;70.20;;;;;;5051212;28;20083;-88
2021/06/22 02:13:25;;;;;;;4.07;2.17;;;25.00;70.80;;;;;;5051349;28;20032;-88
2021/06/22 02:15:51;;;;;;;5.13;2.95;;;24.90;71.80;;;;;;5051221;28;20036;-87
2021/06/22 02:18:16;;;;;;;7.75;2.80;;;24.80;72.40;;;;;;5051034;28;20037;-84
2021/06/22 02:20:42;;;;;;;10.18;3.10;;;24.70;72.90;;;;;;5051015;28;20029;-88
2021/06/22 02:23:09;;;;;;;7.78;2.47;;;24.60;73.60;;;;;;5051137;28;20166;-86
2021/06/22 02:25:34;;;;;;;5.28;2.78;;;24.50;74.20;;;;;;5051202;28;20398;-86
2021/06/22 02:28:09;;;;;;;10.98;3.13;;;24.50;74.70;;;;;;5051054;28;20056;-88
2021/06/22 02:30:36;;;;;;;9.75;2.88;;;24.50;74.60;;;;;;5051193;28;20036;-88
2021/06/22 02:33:02;;;;;;;6.47;3.25;;;24.50;74.30;;;;;;5050489;28;20056;-88
2021/06/22 02:35:28;;;;;;;10.15;3.30;;;24.60;73.90;;;;;;5049544;28;20032;-87
2021/06/22 02:37:54;;;;;;;11.38;3.00;;;24.50;74.20;;;;;;5051098;28;20021;-88
2021/06/22 02:40:24;;;;;;;6.30;3.40;;;24.40;74.30;;;;;;5050799;28;20029;-87
2021/06/22 02:42:50;;;;;;;6.75;2.80;;;24.40;74.50;;;;;;5051033;28;20051;-88
2021/06/22 02:45:16;;;;;;;5.25;3.13;;;24.40;74.70;;;;;;5050842;28;20061;-89
2021/06/22 02:47:43;;;;;;;6.65;2.92;;;24.30;74.90;;;;;;5050575;28;20047;-88
2021/06/22 02:50:09;;;;;;;10.38;3.00;;;24.20;75.20;;;;;;5052140;28;20032;-88
2021/06/22 02:52:34;;;;;;;6.82;3.10;;;24.20;75.10;;;;;;5050805;28;20057;-87
2021/06/22 02:55:00;;;;;;;8.80;4.00;;;24.20;74.90;;;;;;5050833;28;20067;-88
2021/06/22 02:57:26;;;;;;;15.73;3.80;;;24.20;74.80;;;;;;5050843;28;20116;-88
2021/06/22 02:59:51;;;;;;;8.77;2.88;;;24.20;74.70;;;;;;5050925;28;20135;-88
2021/06/22 03:02:17;;;;;;;11.77;3.65;;;24.30;74.60;;;;;;5055016;28;20025;-87
2021/06/22 03:04:43;;;;;;;11.85;3.08;;;24.30;74.50;;;;;;5055079;28;20582;-88
2021/06/22 03:07:08;;;;;;;5.28;2.13;;;24.30;74.40;;;;;;5054625;28;20031;-88
2021/06/22 03:09:34;;;;;;;10.73;3.05;;;24.30;74.60;;;;;;5054585;28;20024;-87
2021/06/22 03:12:00;;;;;;;9.50;3.00;;;24.30;74.80;;;;;;5054802;28;20560;-87
2021/06/22 03:14:26;;;;;;;9.00;3.22;;;24.40;75.30;;;;;;5054286;28;20033;-87
2021/06/22 03:16:52;;;;;;;7.38;2.78;;;24.30;75.50;;;;;;5054294;28;20337;-88
2021/06/22 03:19:18;;;;;;;13.32;3.03;;;24.20;75.90;;;;;;5054476;28;20071;-88
2021/06/22 03:21:45;;;;;;;8.27;3.05;;;24.20;76.20;;;;;;5054449;28;20094;-86
2021/06/22 03:24:15;;;;;;;10.15;3.08;;;24.20;76.40;;;;;;5054504;28;20033;-85
2021/06/22 03:26:41;;;;;;;8.07;2.78;;;24.20;76.60;;;;;;5055407;28;20021;-88
2021/06/22 03:29:08;;;;;;;10.77;4.35;;;24.10;76.70;;;;;;5053742;28;20538;-89
2021/06/22 03:31:34;;;;;;;8.77;3.10;;;24.00;77.00;;;;;;5053776;28;20040;-87
2021/06/22 03:34:00;;;;;;;8.60;3.25;;;24.00;76.90;;;;;;5054286;28;20033;-88
2021/06/22 03:36:25;;;;;;;11.02;2.72;;;24.00;76.80;;;;;;5054726;28;20086;-88
2021/06/22 03:38:51;;;;;;;8.88;3.30;;;24.00;77.00;;;;;;5053771;28;20032;-87
2021/06/22 03:41:17;;;;;;;8.68;2.65;;;24.00;76.80;;;;;;5054146;28;20056;-88
2021/06/22 03:43:43;;;;;;;6.55;2.67;;;24.00;77.00;;;;;;5053897;28;20032;-88
2021/06/22 03:46:10;;;;;;;12.80;3.28;;;24.00;77.20;;;;;;5053648;28;20148;-86
2021/06/22 03:48:35;;;;;;;7.07;3.05;;;23.90;77.50;;;;;;5054223;28;20032;-88
2021/06/22 03:51:01;;;;;;;10.75;4.22;;;23.90;77.80;;;;;;5053552;28;20089;-87
2021/06/22 03:53:27;;;;;;;7.63;2.65;;;23.90;78.00;;;;;;5053916;28;20025;-88
2021/06/22 03:55:53;;;;;;;8.23;2.60;;;23.90;78.20;;;;;;5054034;28;20029;-87
2021/06/22 03:58:18;;;;;;;10.38;2.80;;;23.80;78.30;;;;;;5053337;28;20295;-87
2021/06/22 04:00:44;;;;;;;10.25;2.50;;;23.80;78.40;;;;;;5053667;28;20029;-86
2021/06/22 04:03:14;;;;;;;10.60;3.55;;;23.80;78.80;;;;;;5053324;28;20043;-88
2021/06/22 04:05:40;;;;;;;16.15;2.83;;;23.80;78.90;;;;;;5053280;28;20040;-88
2021/06/22 04:08:06;;;;;;;11.68;3.85;;;23.80;79.00;;;;;;5053746;28;20401;-87
2021/06/22 04:10:32;;;;;;;11.27;3.55;;;23.70;79.40;;;;;;5052981;28;20028;-86
2021/06/22 04:12:59;;;;;;;10.68;3.55;;;23.70;79.40;;;;;;5053307;28;20439;-85
2021/06/22 04:15:24;;;;;;;6.32;3.45;;;23.80;79.30;;;;;;5053317;28;20052;-87
2021/06/22 04:17:50;;;;;;;11.00;2.92;;;23.80;79.10;;;;;;5052859;28;20482;-86
2021/06/22 04:20:17;;;;;;;18.02;4.30;;;23.90;79.10;;;;;;5053533;28;20108;-87
2021/06/22 04:22:42;;;;;;;14.65;2.72;;;24.10;78.70;;;;;;5036366;28;20017;-86
2021/06/22 04:25:09;;;;;;;13.70;5.00;;;24.30;78.20;;;;;;5032918;28;20034;-86
2021/06/22 04:27:35;;;;;;;13.82;3.65;;;24.50;77.60;;;;;;5032991;28;20117;-85
2021/06/22 04:30:05;;;;;;;10.35;3.60;;;24.70;77.20;;;;;;5033288;28;20077;-87
2021/06/22 04:32:31;;;;;;;10.63;3.40;;;24.90;76.50;;;;;;5032734;28;20131;-87
2021/06/22 04:34:56;;;;;;;9.50;3.25;;;25.00;75.90;;;;;;5032786;28;20636;-86
2021/06/22 04:37:22;;;;;;;8.27;3.17;;;25.20;75.60;;;;;;5049057;28;20543;-86
2021/06/22 04:39:48;;;;;;;11.30;3.63;;;25.30;74.90;;;;;;5032140;28;20030;-86
2021/06/22 04:42:14;;;;;;;14.25;4.13;;;25.50;74.40;;;;;;5032164;28;20079;-87
2021/06/22 04:44:40;;;;;;;11.13;3.25;;;25.70;73.40;;;;;;5032405;28;20040;-85
2021/06/22 04:47:05;;;;;;;12.77;4.05;;;25.80;73.80;;;;;;5032333;28;20022;-85
2021/06/22 04:49:31;;;;;;;9.00;3.60;;;25.80;72.90;;;;;;5031631;28;20532;-87
2021/06/22 04:51:57;;;;;;;5.20;3.20;;;25.70;72.90;;;;;;5032653;28;20025;-86
2021/06/22 04:54:24;;;;;;;10.48;3.30;;;25.80;73.20;;;;;;5048876;28;20780;-85
2021/06/22 04:56:50;;;;;;;14.00;4.00;;;25.80;73.80;;;;;;5032046;28;20399;-85
2021/06/22 04:59:16;;;;;;;17.25;5.05;;;25.80;73.70;;;;;;5047452;28;20037;-86
2021/06/22 05:01:42;;;;;;;12.05;4.30;;;25.70;74.00;;;;;;5051860;28;20500;-82
2021/06/22 05:04:07;;;;;;;12.23;3.72;;;25.80;74.30;;;;;;5049707;28;20060;-79
2021/06/22 05:06:33;;;;;;;12.48;3.88;;;25.90;73.90;;;;;;5050763;28;20378;-80
2021/06/22 05:08:59;;;;;;;10.93;3.40;;;25.90;73.90;;;;;;5049294;28;20409;-80
2021/06/22 05:11:24;;;;;;;10.15;3.95;;;26.00;73.80;;;;;;5050585;28;20489;-80
2021/06/22 05:13:51;;;;;;;10.85;4.10;;;26.10;73.20;;;;;;5049242;28;20060;-79
2021/06/22 05:16:17;;;;;;;13.02;4.45;;;26.20;73.40;;;;;;5049066;28;20710;-80
2021/06/22 05:18:45;;;;;;;9.90;4.28;;;26.30;72.40;;;;;;5050261;28;20178;-79
2021/06/22 05:21:11;;;;;;;24.50;4.55;;;26.20;72.80;;;;;;5049055;28;20760;-80
2021/06/22 05:23:37;;;;;;;16.02;4.28;;;26.50;72.90;;;;;;5049609;28;20111;-80
2021/06/22 05:26:03;;;;;;;9.70;3.83;;;26.60;71.90;;;;;;5050611;28;20158;-79
2021/06/22 05:28:28;;;;;;;13.13;4.07;;;26.60;72.20;;;;;;5049930;28;20537;-78
2021/06/22 05:30:55;;;;;;;8.32;3.65;;;26.70;71.80;;;;;;5049948;28;20096;-78
2021/06/22 05:33:21;;;;;;;17.50;4.63;;;26.60;72.00;;;;;;5048954;28;20186;-77
2021/06/22 05:35:46;;;;;;;15.13;4.05;;;26.70;72.30;;;;;;5048973;28;20492;-78
2021/06/22 05:38:12;;;;;;;13.18;4.22;;;26.90;71.70;;;;;;5049792;28;20126;-78
2021/06/22 05:40:38;;;;;;;11.68;4.97;;;27.00;70.60;;;;;;5049784;28;20021;-78
2021/06/22 05:43:04;;;;;;;14.65;3.95;;;27.10;71.00;;;;;;5048453;28;20039;-78
2021/06/22 05:45:29;;;;;;;13.02;4.53;;;27.30;70.40;;;;;;5049070;28;20106;-78
2021/06/22 05:47:55;;;;;;;12.15;3.83;;;27.70;69.30;;;;;;5049929;28;20068;-78
2021/06/22 05:50:21;;;;;;;16.08;4.43;;;28.20;67.70;;;;;;5049626;28;20512;-78
2021/06/22 05:52:46;;;;;;;12.80;4.60;;;28.60;65.90;;;;;;5049816;28;20104;-78
2021/06/22 05:55:16;;;;;;;11.52;4.80;;;28.90;65.00;;;;;;5049715;28;20021;-78
2021/06/22 05:57:47;;;;;;;11.57;4.57;;;29.50;63.40;;;;;;5049592;28;20035;-79
2021/06/22 06:00:17;;;;;;;19.95;4.65;;;30.20;60.80;;;;;;5048206;28;20155;-78
2021/06/22 06:02:43;;;;;;;20.13;4.85;;;31.10;59.10;;;;;;5049582;28;20168;-79
2021/06/22 06:05:11;;;;;;;12.63;3.85;;;32.30;54.70;;;;;;5048254;28;20039;-77
2021/06/22 06:07:37;;;;;;;14.45;4.22;;;33.10;52.40;;;;;;5048072;28;20137;-79
2021/06/22 06:10:04;;;;;;;16.58;4.05;;;33.60;50.70;;;;;;5048432;28;20527;-78
2021/06/22 06:12:29;;;;;;;9.88;3.83;;;34.50;47.90;;;;;;5049442;28;20857;-78
2021/06/22 06:14:55;;;;;;;8.07;4.25;;;34.60;47.80;;;;;;5048109;28;20025;-78
2021/06/22 06:17:21;;;;;;;12.02;3.75;;;35.40;45.50;;;;;;5049574;28;20079;-77
2021/06/22 06:19:47;;;;;;;10.07;4.15;;;35.90;44.00;;;;;;5047869;28;20037;-78
2021/06/22 06:22:12;;;;;;;8.45;3.58;;;35.70;43.60;;;;;;5048586;28;20029;-79
2021/06/22 06:24:38;;;;;;;14.77;4.07;;;35.60;44.10;;;;;;5048113;28;20108;-78
2021/06/22 06:27:09;;;;;;;10.57;3.40;;;35.50;44.10;;;;;;5047894;28;20025;-79
2021/06/22 06:32:00;;;;;;;19.13;3.85;;;36.00;43.80;;;;;;5049717;28;20068;-79
2021/06/22 06:34:26;;;;;;;7.43;3.15;;;36.50;42.90;;;;;;5050551;28;20048;-79
2021/06/22 06:36:51;;;;;;;7.75;3.65;;;36.80;41.70;;;;;;5051989;28;20087;-79
2021/06/22 06:39:17;;;;;;;13.30;4.60;;;36.20;42.40;;;;;;5053193;28;20039;-78
2021/06/22 06:41:43;;;;;;;12.30;3.95;;;36.40;42.20;;;;;;5052028;28;20033;-80
2021/06/22 06:44:08;;;;;;;13.80;4.13;;;36.40;42.60;;;;;;5053156;28;20082;-79
2021/06/22 06:46:34;;;;;;;12.40;3.72;;;36.20;42.20;;;;;;5053103;28;20428;-79
2021/06/22 06:48:59;;;;;;;17.20;4.10;;;36.00;42.30;;;;;;5051827;28;20021;-79
2021/06/22 06:51:25;;;;;;;16.88;4.25;;;36.40;42.40;;;;;;5053174;28;20491;-79
2021/06/22 06:53:51;;;;;;;10.60;4.15;;;36.40;41.90;;;;;;5053163;28;20075;-79
2021/06/22 06:56:16;;;;;;;9.10;3.95;;;36.70;41.90;;;;;;5052975;28;20051;-79
2021/06/22 06:58:42;;;;;;;8.60;3.88;;;36.90;41.60;;;;;;5052818;28;20029;-79
2021/06/22 07:01:08;;;;;;;18.45;4.63;;;36.70;41.50;;;;;;5052809;28;20036;-80
2021/06/22 07:03:33;;;;;;;19.80;4.15;;;36.60;41.60;;;;;;5052739;28;20029;-79
2021/06/22 07:06:00;;;;;;;17.52;4.15;;;36.50;41.30;;;;;;5051803;28;20028;-80
2021/06/22 07:08:26;;;;;;;17.23;3.42;;;36.60;42.00;;;;;;5051362;28;20056;-80
2021/06/22 07:10:51;;;;;;;17.90;4.03;;;36.70;41.60;;;;;;5051365;28;20768;-79
2021/06/22 07:13:17;;;;;;;17.15;5.40;;;36.80;42.20;;;;;;5052903;28;20060;-79
2021/06/22 07:15:43;;;;;;;24.13;4.55;;;37.10;41.00;;;;;;5051393;28;20032;-80
2021/06/22 07:18:09;;;;;;;13.32;4.40;;;37.20;40.00;;;;;;5052460;28;20043;-80
2021/06/22 07:20:35;;;;;;;21.42;4.43;;;36.70;40.50;;;;;;5052528;28;20056;-78
2021/06/22 07:23:00;;;;;;;29.52;5.43;;;36.90;41.00;;;;;;5051288;28;20488;-80
2021/06/22 07:25:26;;;;;;;19.73;4.85;;;36.90;40.60;;;;;;5051548;28;20033;-79
2021/06/22 07:27:56;;;;;;;20.73;6.38;;;37.10;40.20;;;;;;5052383;28;20468;-79
2021/06/22 07:30:23;;;;;;;14.80;4.97;;;36.90;40.50;;;;;;5052430;28;20021;-80
2021/06/22 07:32:50;;;;;;;16.80;4.80;;;36.60;41.00;;;;;;5051248;28;20131;-80
2021/06/22 07:35:16;;;;;;;14.70;4.63;;;36.60;41.60;;;;;;5052392;28;20032;-78
2021/06/22 07:37:43;;;;;;;17.35;4.93;;;36.30;42.60;;;;;;5052276;28;20032;-78
2021/06/22 07:40:09;;;;;;;12.43;4.60;;;36.50;42.40;;;;;;5050830;28;20033;-80
2021/06/22 07:42:35;;;;;;;20.92;5.40;;;36.60;42.30;;;;;;5050912;28;20661;-80
2021/06/22 07:45:01;;;;;;;19.05;4.82;;;36.10;42.60;;;;;;5052185;28;20025;-79
2021/06/22 07:47:26;;;;;;;28.92;4.97;;;36.10;43.70;;;;;;5051180;28;20017;-78
2021/06/22 07:49:52;;;;;;;26.20;5.45;;;36.40;43.00;;;;;;5050977;28;20541;-79
2021/06/22 07:52:18;;;;;;;14.00;5.22;;;36.40;42.40;;;;;;5051836;28;20118;-79
2021/06/22 07:54:44;;;;;;;15.43;5.18;;;36.80;42.30;;;;;;5050759;28;20029;-78
2021/06/22 07:57:10;;;;;;;16.98;5.40;;;36.70;42.50;;;;;;5050738;28;20782;-79
2021/06/22 07:59:35;;;;;;;16.35;5.20;;;36.30;42.80;;;;;;5050550;28;20124;-78
2021/06/22 08:02:01;;;;;;;19.63;5.68;;;36.20;43.40;;;;;;5050492;28;20473;-78
2021/06/22 08:04:27;;;;;;;19.77;5.30;;;36.20;43.10;;;;;;5051725;28;20561;-79
2021/06/22 08:06:53;;;;;;;16.35;4.80;;;36.40;42.80;;;;;;5051840;28;20641;-79
2021/06/22 08:09:20;;;;;;;21.70;5.07;;;36.60;42.70;;;;;;5051775;28;20116;-81
2021/06/22 08:11:45;;;;;;;35.17;6.07;;;36.70;42.50;;;;;;5051850;28;20021;-81
2021/06/22 08:14:11;;;;;;;31.60;5.95;;;36.60;42.30;;;;;;5051711;28;20029;-81
2021/06/22 08:16:37;;;;;;;16.75;5.40;;;36.20;43.70;;;;;;5051705;28;20059;-80
2021/06/22 08:19:03;;;;;;;21.50;5.35;;;36.30;43.50;;;;;;5050059;28;20147;-80
2021/06/22 08:21:29;;;;;;;19.98;4.75;;;36.40;42.80;;;;;;5049762;28;20063;-80
2021/06/22 08:23:55;;;;;;;23.48;5.30;;;36.70;42.40;;;;;;5051375;28;20060;-79
2021/06/22 08:26:20;;;;;;;20.20;5.40;;;36.80;42.20;;;;;;5051478;28;20091;-78
2021/06/22 08:28:46;;;;;;;16.90;5.65;;;36.80;41.80;;;;;;5051050;28;20057;-81
2021/06/22 08:31:12;;;;;;;29.10;5.72;;;36.80;42.30;;;;;;5051228;28;20031;-80
2021/06/22 08:33:38;;;;;;;16.83;4.90;;;36.50;41.50;;;;;;5051292;28;20130;-80
2021/06/22 08:36:04;;;;;;;18.23;4.65;;;36.20;42.80;;;;;;5050023;28;20128;-81
2021/06/22 08:38:30;;;;;;;19.55;5.60;;;36.20;43.30;;;;;;5049878;28;20036;-80
2021/06/22 08:40:56;;;;;;;19.50;5.38;;;36.10;43.60;;;;;;5049932;28;20040;-80
2021/06/22 08:43:22;;;;;;;29.67;6.53;;;36.10;43.70;;;;;;5049747;28;20028;-81
2021/06/22 08:45:48;;;;;;;27.50;5.35;;;36.30;43.00;;;;;;5049658;28;20024;-80
2021/06/22 08:48:14;;;;;;;19.92;5.15;;;36.30;43.00;;;;;;5049743;28;20028;-80
2021/06/22 08:50:45;;;;;;;26.73;5.32;;;36.00;43.60;;;;;;5049635;28;20025;-80
2021/06/22 08:53:13;;;;;;;26.33;5.80;;;35.90;43.80;;;;;;5050976;28;20693;-79
2021/06/22 08:55:40;;;;;;;16.60;4.47;;;36.10;43.60;;;;;;5049504;28;20083;-80
2021/06/22 08:58:11;;;;;;;27.55;4.70;;;36.20;44.20;;;;;;5048326;28;20757;-80
2021/06/22 09:00:40;;;;;;;21.55;5.22;;;36.30;43.80;;;;;;5049850;28;20489;-80
2021/06/22 09:03:11;;;;;;;23.95;5.93;;;36.50;43.50;;;;;;5050711;28;20386;-80
2021/06/22 09:05:41;;;;;;;18.65;4.53;;;36.50;43.00;;;;;;5050612;28;20044;-80
2021/06/22 09:08:26;;;;;;;26.52;5.70;;;36.50;43.20;;;;;;5050722;28;20430;-80
2021/06/22 09:11:13;;;;;;;36.50;5.70;;;36.50;43.20;;;;;;5050336;28;20104;-79
2021/06/22 09:13:41;;;;;;;20.60;5.82;;;36.40;42.50;;;;;;5050522;28;20040;-79
2021/06/22 09:16:09;;;;;;;18.45;5.38;;;36.40;43.50;;;;;;5049334;28;20106;-79
2021/06/22 09:18:37;;;;;;;27.33;4.90;;;36.40;43.60;;;;;;5050203;28;20040;-79
2021/06/22 09:21:05;;;;;;;25.88;5.32;;;36.50;43.50;;;;;;5049143;28;20025;-80
2021/06/22 09:23:37;;;;;;;21.98;6.18;;;36.50;43.00;;;;;;5050321;28;20035;-80
2021/06/22 09:26:16;;;;;;;23.88;5.65;;;36.50;43.60;;;;;;5049001;28;20028;-80
2021/06/22 09:28:42;;;;;;;29.00;6.00;;;36.70;43.40;;;;;;5050120;28;20102;-82
2021/06/22 09:31:13;;;;;;;24.90;6.43;;;36.60;42.70;;;;;;5050147;28;20021;-80
2021/06/22 09:33:54;;;;;;;16.02;5.72;;;36.30;43.20;;;;;;5048744;28;20512;-80
2021/06/22 09:36:26;;;;;;;29.25;6.18;;;36.50;43.30;;;;;;5050105;28;20500;-79
2021/06/22 09:39:06;;;;;;;16.20;5.75;;;36.70;42.30;;;;;;5048693;28;20041;-79
2021/06/22 09:41:39;;;;;;;17.20;5.05;;;36.80;41.90;;;;;;5048669;28;20504;-81
2021/06/22 09:44:11;;;;;;;22.00;5.50;;;36.40;43.40;;;;;;5048704;28;20115;-80
2021/06/22 09:46:54;;;;;;;32.40;5.68;;;36.10;42.80;;;;;;5049957;28;20040;-80
2021/06/22 09:49:23;;;;;;;29.85;5.70;;;36.00;43.60;;;;;;5048648;28;20029;-79
2021/06/22 09:51:53;;;;;;;32.38;5.78;;;36.00;43.60;;;;;;5049858;28;20551;-79
2021/06/22 09:54:22;;;;;;;26.27;6.13;;;35.90;44.40;;;;;;5049720;28;20017;-80
2021/06/22 09:57:05;;;;;;;29.85;6.20;;;36.00;43.30;;;;;;5048537;28;20560;-78
2021/06/22 09:59:46;;;;;;;30.55;5.22;;;36.00;43.60;;;;;;5037210;28;20045;-81
2021/06/22 10:02:12;;;;;;;28.75;5.57;;;36.40;44.20;;;;;;5029262;28;20112;-79
2021/06/22 10:04:45;;;;;;;34.85;5.18;;;36.30;43.20;;;;;;5034707;28;20108;-79
2021/06/22 10:07:13;;;;;;;34.08;5.22;;;35.70;43.10;;;;;;5048291;28;20025;-78
2021/06/22 10:09:40;;;;;;;18.00;4.47;;;34.90;44.70;;;;;;5047852;28;20025;-79
2021/06/22 10:12:09;;;;;;;28.48;6.15;;;34.50;47.20;;;;;;5040023;28;20037;-78
2021/06/22 10:14:46;;;;;;;30.85;5.07;;;34.30;47.90;;;;;;5037594;28;20032;-79
2021/06/22 10:17:14;;;;;;;24.77;5.45;;;34.10;48.80;;;;;;5029861;28;20021;-85
2021/06/22 10:19:41;;;;;;;29.27;5.95;;;34.10;48.40;;;;;;5031252;28;20038;-85
2021/06/22 10:22:08;;;;;;;34.00;6.07;;;34.00;47.60;;;;;;5031248;28;20099;-84
2021/06/22 10:24:40;;;;;;;32.03;5.53;;;33.80;48.50;;;;;;5030166;28;20377;-83
2021/06/22 10:27:06;;;;;;;38.53;5.95;;;33.80;48.60;;;;;;5029913;28;20040;-85
2021/06/22 10:29:32;;;;;;;29.67;6.05;;;33.60;49.80;;;;;;5017212;28;20072;-85
2021/06/22 10:32:00;;;;;;;35.58;6.72;;;33.60;49.90;;;;;;5049670;28;20477;-84
2021/06/22 10:34:25;;;;;;;33.17;5.13;;;33.70;50.00;;;;;;5042167;28;20525;-85
2021/06/22 10:37:06;;;;;;;31.52;5.55;;;33.70;49.50;;;;;;5035992;28;20124;-82
2021/06/22 10:39:55;;;;;;;37.15;6.40;;;33.80;50.40;;;;;;5039184;28;20089;-83
2021/06/22 10:42:21;;;;;;;24.92;5.47;;;33.80;49.10;;;;;;5048576;28;20044;-84
2021/06/22 10:45:03;;;;;;;32.17;6.72;;;33.60;49.10;;;;;;5065685;28;20025;-84
2021/06/22 10:47:36;;;;;;;28.77;5.97;;;33.50;49.90;;;;;;5062868;28;20537;-84
2021/06/22 10:50:23;;;;;;;24.27;6.07;;;33.50;49.40;;;;;;5058542;28;20044;-84
2021/06/22 10:53:00;;;;;;;29.75;4.70;;;33.30;49.80;;;;;;5056055;28;20032;-84
2021/06/22 10:55:28;;;;;;;31.92;7.07;;;33.10;50.30;;;;;;5068596;28;20047;-83
2021/06/22 10:57:57;;;;;;;34.90;6.70;;;33.10;50.70;;;;;;5053404;28;20045;-84
2021/06/22 11:00:28;;;;;;;28.55;5.90;;;33.20;51.40;;;;;;5085404;28;20138;-85
2021/06/22 11:03:05;;;;;;;24.77;6.25;;;33.10;51.30;;;;;;5051988;28;20025;-83
2021/06/22 11:05:32;;;;;;;23.75;5.38;;;33.10;50.70;;;;;;5074536;28;20048;-84
2021/06/22 11:08:16;;;;;;;30.42;5.70;;;33.00;50.20;;;;;;5066059;28;20506;-85
2021/06/22 11:10:54;;;;;;;27.67;5.85;;;33.10;50.50;;;;;;5072646;28;20068;-84
2021/06/22 11:13:41;;;;;;;33.72;5.38;;;33.30;50.80;;;;;;5072778;28;20024;-84
2021/06/22 11:16:25;;;;;;;31.13;6.20;;;33.10;49.60;;;;;;5072744;28;20545;-84
2021/06/22 11:18:54;;;;;;;37.20;5.50;;;33.00;50.90;;;;;;5072702;28;20093;-85
2021/06/22 11:21:42;;;;;;;23.70;5.40;;;32.80;50.30;;;;;;5074330;28;20020;-84
2021/06/22 11:24:11;;;;;;;23.20;5.32;;;32.80;50.60;;;;;;5076287;28;20571;-84
2021/06/22 11:26:59;;;;;;;27.95;6.80;;;32.80;51.00;;;;;;5076197;28;20024;-84
2021/06/22 11:29:44;;;;;;;27.52;5.30;;;33.00;50.60;;;;;;5076148;28;20044;-85
2021/06/22 11:32:10;;;;;;;30.67;6.88;;;33.00;50.70;;;;;;5076144;28;20032;-85
2021/06/22 11:34:55;;;;;;;30.67;6.05;;;33.10;48.60;;;;;;5076007;28;20031;-84
2021/06/22 11:37:23;;;;;;;33.70;5.60;;;33.00;49.60;;;;;;5076199;28;20016;-85
2021/06/22 11:40:10;;;;;;;25.38;5.95;;;33.10;49.60;;;;;;5076199;28;20123;-85
2021/06/22 11:42:37;;;;;;;27.38;6.43;;;33.20;50.70;;;;;;5076121;28;20110;-84
2021/06/22 11:45:03;;;;;;;24.27;5.68;;;33.40;49.30;;;;;;5072474;28;20046;-85
2021/06/22 11:47:32;;;;;;;26.63;5.00;;;33.60;48.60;;;;;;5073122;28;20031;-85
2021/06/22 11:50:10;;;;;;;23.33;5.78;;;33.40;49.40;;;;;;5072464;28;20115;-85
2021/06/22 11:52:45;;;;;;;27.67;5.45;;;33.30;49.00;;;;;;5072723;28;20115;-83
2021/06/22 11:55:29;;;;;;;32.75;6.18;;;33.10;49.70;;;;;;5076405;28;20028;-85
2021/06/22 11:57:57;;;;;;;26.17;6.93;;;32.90;50.80;;;;;;5093757;28;20185;-85
2021/06/22 12:00:29;;;;;;;25.95;5.00;;;32.80;52.00;;;;;;5093920;28;20057;-85
2021/06/22 12:02:59;;;;;;;37.75;5.97;;;33.00;51.40;;;;;;5076172;28;20131;-85
2021/06/22 12:05:33;;;;;;;38.50;5.18;;;33.00;50.90;;;;;;5075987;28;20028;-84
2021/06/22 12:08:01;;;;;;;25.02;6.13;;;32.90;51.50;;;;;;5075498;28;20035;-85
2021/06/22 12:10:47;;;;;;;21.90;5.07;;;32.60;51.60;;;;;;5074969;28;20144;-85
2021/06/22 12:13:33;;;;;;;26.83;6.35;;;32.70;52.10;;;;;;5071620;28;20124;-85
2021/06/22 12:16:15;;;;;;;28.08;5.75;;;32.80;51.90;;;;;;5055797;28;20067;-85
2021/06/22 12:18:41;;;;;;;26.42;5.82;;;33.10;51.70;;;;;;5082617;28;20036;-86
2021/06/22 12:21:06;;;;;;;26.55;6.07;;;33.20;50.80;;;;;;5073640;28;20101;-85
2021/06/22 12:23:32;;;;;;;26.27;5.80;;;33.30;51.00;;;;;;5074589;28;20020;-84
2021/06/22 12:25:58;;;;;;;29.02;5.85;;;33.40;49.40;;;;;;5072186;28;20434;-85
2021/06/22 12:28:24;;;;;;;28.67;5.72;;;33.40;48.40;;;;;;5074279;28;20052;-84
2021/06/22 12:30:56;;;;;;;39.25;6.65;;;33.40;48.20;;;;;;5074297;28;20064;-85
2021/06/22 12:33:24;;;;;;;31.02;5.82;;;33.40;47.80;;;;;;5074251;28;20492;-85
2021/06/22 12:35:52;;;;;;;43.20;6.05;;;33.40;48.30;;;;;;5074353;28;20043;-83
2021/06/22 12:38:22;;;;;;;29.42;6.38;;;33.20;47.70;;;;;;5091987;28;20400;-85
2021/06/22 12:40:53;;;;;;;31.70;6.85;;;32.90;47.80;;;;;;5071206;28;20036;-85
2021/06/22 12:43:19;;;;;;;42.10;6.45;;;32.70;48.00;;;;;;5071532;28;20488;-85
2021/06/22 12:45:59;;;;;;;39.20;6.72;;;32.70;47.70;;;;;;5071857;28;20573;-85